createdAt,value
2018-06-03T00:00:26.351Z,91.20
2018-06-03T00:02:55.427Z,91.30
2018-06-03T00:05:24.356Z,91.20
2018-06-03T00:07:53.536Z,91.20
2018-06-03T00:10:22.491Z,91.30
2018-06-03T00:12:51.566Z,91.10
2018-06-03T00:15:20.557Z,91.30
2018-06-03T00:17:49.542Z,91.40
2018-06-03T00:20:28.388Z,91.40
2018-06-03T00:22:57.348Z,91.40
2018-06-03T00:25:26.490Z,91.50
2018-06-03T00:27:55.480Z,91.50
2018-06-03T00:30:24.464Z,91.60
2018-06-03T00:32:53.558Z,91.60
2018-06-03T00:35:22.597Z,91.50
2018-06-03T00:37:51.861Z,91.50
2018-06-03T00:40:22.753Z,91.50
2018-06-03T00:42:53.167Z,91.50
2018-06-03T00:45:23.258Z,91.50
2018-06-03T00:47:53.397Z,91.50
2018-06-03T00:50:23.359Z,91.60
2018-06-03T00:52:53.205Z,91.60
2018-06-03T00:55:23.380Z,91.50
2018-06-03T00:57:53.613Z,91.50
2018-06-03T01:00:22.575Z,91.40
2018-06-03T01:02:51.700Z,91.40
2018-06-03T01:05:20.879Z,91.50
2018-06-03T01:07:49.804Z,91.30
2018-06-03T01:10:18.664Z,91.70
2018-06-03T01:12:48.433Z,91.20
2018-06-03T01:15:17.378Z,91.10
2018-06-03T01:17:46.255Z,91.10
2018-06-03T01:20:16.194Z,91.30
2018-06-03T01:22:46.372Z,91.20
2018-06-03T01:25:16.444Z,91.30
2018-06-03T01:27:46.647Z,91.30
2018-06-03T01:30:16.735Z,91.30
2018-06-03T01:32:47.470Z,91.30
2018-06-03T01:35:17.086Z,91.30
2018-06-03T01:37:48.883Z,91.40
2018-06-03T01:40:19.649Z,91.50
2018-06-03T01:42:50.882Z,91.50
2018-06-03T01:45:21.638Z,91.60
2018-06-03T01:47:53.169Z,91.70
2018-06-03T01:50:22.746Z,91.80
2018-06-03T01:52:53.051Z,91.90
2018-06-03T01:55:24.506Z,91.90
2018-06-03T01:57:54.404Z,91.90
2018-06-03T02:00:24.412Z,91.90
2018-06-03T02:02:55.065Z,91.90
2018-06-03T02:07:55.046Z,92.00
2018-06-03T02:10:25.620Z,92.00
2018-06-03T02:12:55.541Z,92.10
2018-06-03T02:17:55.284Z,92.40
2018-06-03T02:20:25.344Z,92.50
2018-06-03T02:22:55.168Z,92.60
2018-06-03T02:25:26.213Z,92.60
2018-06-03T02:27:56.494Z,92.70
2018-06-03T02:30:26.137Z,92.80
2018-06-03T02:32:57.773Z,92.80
2018-06-03T02:35:29.037Z,92.80
2018-06-03T02:37:59.670Z,92.60
2018-06-03T02:40:29.834Z,92.70
2018-06-03T02:43:00.245Z,92.60
2018-06-03T02:45:30.644Z,92.50
2018-06-03T02:47:59.583Z,92.50
2018-06-03T02:50:28.903Z,92.30
2018-06-03T02:52:57.804Z,92.30
2018-06-03T02:55:26.794Z,92.40
2018-06-03T02:57:55.665Z,92.40
2018-06-03T03:00:24.638Z,92.40
2018-06-03T03:02:55.044Z,92.40
2018-06-03T03:05:27.788Z,92.30
2018-06-03T03:07:58.803Z,92.40
2018-06-03T03:10:29.981Z,92.50
2018-06-03T03:13:00.462Z,92.50
2018-06-03T03:15:33.501Z,92.80
2018-06-03T03:18:05.380Z,92.60
2018-06-03T03:20:35.308Z,92.70
2018-06-03T03:23:06.081Z,92.80
2018-06-03T03:25:36.955Z,92.80
2018-06-03T03:28:07.753Z,93.00
2018-06-03T03:30:38.826Z,93.00
2018-06-03T03:33:09.851Z,93.00
2018-06-03T03:35:40.659Z,93.00
2018-06-03T03:38:11.188Z,92.90
2018-06-03T03:40:41.107Z,92.90
2018-06-03T03:43:11.595Z,92.90
2018-06-03T03:45:41.730Z,93.00
2018-06-03T03:48:12.748Z,92.90
2018-06-03T03:50:42.877Z,92.90
2018-06-03T03:53:14.035Z,92.90
2018-06-03T03:55:44.410Z,92.90
2018-06-03T03:58:15.422Z,92.90
2018-06-03T04:00:45.533Z,93.10
2018-06-03T04:03:16.242Z,93.10
2018-06-03T04:05:46.070Z,93.20
2018-06-03T04:08:16.243Z,93.20
2018-06-03T04:10:46.945Z,93.20
2018-06-03T04:13:18.338Z,93.10
2018-06-03T04:15:49.228Z,93.00
2018-06-03T04:20:49.330Z,92.90
2018-06-03T04:23:20.179Z,92.70
2018-06-03T04:25:50.382Z,92.60
2018-06-03T04:28:21.827Z,92.70
2018-06-03T04:30:52.279Z,92.80
2018-06-03T04:33:22.616Z,92.90
2018-06-03T04:35:53.861Z,92.90
2018-06-03T04:38:25.355Z,93.00
2018-06-03T04:40:56.134Z,93.00
2018-06-03T04:43:26.577Z,93.00
2018-06-03T04:45:56.860Z,93.20
2018-06-03T04:48:27.326Z,93.20
2018-06-03T04:50:58.886Z,93.40
2018-06-03T04:53:29.382Z,93.60
2018-06-03T04:55:59.720Z,93.60
2018-06-03T04:58:28.676Z,93.80
2018-06-03T05:00:57.774Z,93.80
2018-06-03T05:03:26.884Z,93.80
2018-06-03T05:05:55.886Z,93.80
2018-06-03T05:08:25.061Z,93.80
2018-06-03T05:10:53.961Z,93.70
2018-06-03T05:13:22.920Z,93.60
2018-06-03T05:15:51.867Z,93.60
2018-06-03T05:18:21.004Z,93.50
2018-06-03T05:20:49.940Z,93.20
2018-06-03T05:23:18.936Z,93.20
2018-06-03T05:25:47.934Z,93.20
2018-06-03T05:28:16.963Z,93.00
2018-06-03T05:30:45.915Z,92.90
2018-06-03T05:33:14.683Z,92.90
2018-06-03T05:35:43.608Z,92.90
2018-06-03T05:38:12.519Z,92.80
2018-06-03T05:40:41.410Z,93.00
2018-06-03T05:43:10.399Z,92.70
2018-06-03T05:45:39.353Z,92.50
2018-06-03T05:48:08.311Z,92.40
2018-06-03T05:50:37.279Z,92.40
2018-06-03T05:53:06.435Z,92.30
2018-06-03T05:55:35.580Z,92.30
2018-06-03T05:58:04.691Z,92.30
2018-06-03T06:00:33.911Z,92.20
2018-06-03T06:03:02.905Z,92.20
2018-06-03T06:05:32.056Z,92.00
2018-06-03T06:08:00.972Z,91.80
2018-06-03T06:10:29.796Z,91.60
2018-06-03T06:12:58.893Z,91.60
2018-06-03T06:15:27.834Z,91.70
2018-06-03T06:17:56.762Z,91.40
2018-06-03T06:20:25.727Z,91.60
2018-06-03T06:22:54.700Z,91.40
2018-06-03T06:25:23.707Z,91.20
2018-06-03T06:27:53.599Z,90.80
2018-06-03T06:32:51.070Z,90.60
2018-06-03T06:35:20.006Z,90.60
2018-06-03T06:37:48.999Z,90.50
2018-06-03T06:40:18.056Z,90.50
2018-06-03T06:42:47.162Z,90.50
2018-06-03T06:45:16.041Z,90.20
2018-06-03T06:47:44.982Z,89.80
2018-06-03T06:50:13.855Z,89.40
2018-06-03T06:52:42.795Z,89.30
2018-06-03T06:55:11.677Z,88.70
2018-06-03T06:57:40.611Z,88.60
2018-06-03T07:00:09.583Z,88.80
2018-06-03T07:05:06.997Z,88.10
2018-06-03T07:07:35.957Z,88.60
2018-06-03T07:10:05.043Z,88.30
2018-06-03T07:12:34.000Z,87.90
2018-06-03T07:15:02.905Z,87.30
2018-06-03T07:20:00.638Z,87.00
2018-06-03T07:22:29.621Z,87.00
2018-06-03T07:24:58.587Z,86.80
2018-06-03T07:27:28.429Z,87.00
2018-06-03T07:29:57.438Z,86.10
2018-06-03T07:32:26.364Z,86.00
2018-06-03T07:34:55.333Z,85.20
2018-06-03T07:37:24.287Z,86.60
2018-06-03T07:39:53.255Z,85.80
2018-06-03T07:44:50.769Z,84.60
2018-06-03T07:47:19.750Z,84.00
2018-06-03T07:49:48.715Z,83.60
2018-06-03T07:52:17.781Z,83.20
2018-06-03T07:54:46.825Z,83.50
2018-06-03T07:57:15.884Z,83.00
2018-06-03T08:02:13.483Z,81.00
2018-06-03T08:07:11.001Z,80.50
2018-06-03T08:09:39.940Z,78.80
2018-06-03T08:12:08.797Z,78.30
2018-06-03T08:14:37.817Z,78.20
2018-06-03T08:17:06.829Z,77.10
2018-06-03T08:19:35.846Z,76.90
2018-06-03T08:22:05.000Z,75.20
2018-06-03T08:24:34.120Z,75.10
2018-06-03T08:27:03.257Z,74.40
2018-06-03T08:29:32.353Z,71.50
2018-06-03T08:32:01.265Z,72.70
2018-06-03T08:34:30.163Z,73.10
2018-06-03T08:36:59.020Z,72.60
2018-06-03T08:39:28.908Z,71.50
2018-06-03T08:41:57.800Z,72.50
2018-06-03T08:44:27.539Z,73.20
2018-06-03T08:46:57.046Z,71.80
2018-06-03T08:49:26.463Z,71.30
2018-06-03T08:51:56.331Z,70.90
2018-06-03T08:54:26.156Z,69.60
2018-06-03T08:56:55.223Z,68.80
2018-06-03T08:59:24.372Z,67.90
2018-06-03T09:01:53.485Z,69.00
2018-06-03T09:04:22.648Z,68.80
2018-06-03T09:06:51.742Z,69.60
2018-06-03T09:09:21.106Z,70.30
2018-06-03T09:11:50.475Z,69.70
2018-06-03T09:14:19.898Z,68.80
2018-06-03T09:16:48.939Z,67.60
2018-06-03T09:19:18.059Z,67.40
2018-06-03T09:24:16.106Z,66.80
2018-06-03T09:26:45.147Z,64.40
2018-06-03T09:29:14.441Z,63.80
2018-06-03T09:31:43.549Z,63.70
2018-06-03T09:34:12.859Z,63.30
2018-06-03T09:36:42.014Z,62.60
2018-06-03T09:39:11.181Z,63.60
2018-06-03T09:41:40.804Z,61.50
2018-06-03T09:44:10.097Z,62.50
2018-06-03T09:46:39.983Z,61.40
2018-06-03T09:49:09.438Z,62.20
2018-06-03T09:51:38.933Z,59.80
2018-06-03T09:54:08.063Z,60.50
2018-06-03T09:56:37.665Z,58.50
2018-06-03T09:59:07.743Z,58.20
2018-06-03T10:01:37.785Z,58.20
2018-06-03T10:04:07.284Z,57.20
2018-06-03T10:06:36.913Z,55.70
2018-06-03T10:09:07.653Z,56.00
2018-06-03T10:11:37.833Z,56.20
2018-06-03T10:14:08.376Z,54.50
2018-06-03T10:16:37.612Z,52.70
2018-06-03T10:19:06.886Z,51.90
2018-06-03T10:21:37.391Z,52.60
2018-06-03T10:24:07.705Z,50.90
2018-06-03T10:26:38.537Z,49.80
2018-06-03T10:29:09.348Z,49.20
2018-06-03T10:31:38.808Z,50.70
2018-06-03T10:34:08.185Z,49.20
2018-06-03T10:36:37.457Z,48.10
2018-06-03T10:39:08.445Z,47.70
2018-06-03T10:41:38.104Z,47.90
2018-06-03T10:44:07.447Z,46.00
2018-06-03T10:46:36.452Z,45.80
2018-06-03T10:49:05.751Z,45.60
2018-06-03T10:51:35.193Z,45.80
2018-06-03T10:54:05.484Z,43.50
2018-06-03T10:56:35.189Z,43.00
2018-06-03T10:59:04.437Z,42.10
2018-06-03T11:01:33.893Z,43.50
2018-06-03T11:04:03.885Z,41.70
2018-06-03T11:06:34.286Z,41.20
2018-06-03T11:09:05.337Z,41.10
2018-06-03T11:11:36.329Z,41.00
2018-06-03T11:14:06.099Z,41.00
2018-06-03T11:16:36.526Z,40.50
2018-06-03T11:19:06.729Z,40.20
2018-06-03T11:21:37.595Z,40.20
2018-06-03T11:24:07.331Z,41.10
2018-06-03T11:26:39.307Z,39.70
2018-06-03T11:29:11.083Z,39.30
2018-06-03T11:31:46.185Z,38.40
2018-06-03T11:34:16.843Z,39.80
2018-06-03T11:36:49.427Z,38.00
2018-06-03T11:41:55.849Z,35.50
2018-06-03T11:44:28.387Z,37.00
2018-06-03T11:47:01.649Z,35.60
2018-06-03T11:49:36.691Z,36.20
2018-06-03T11:52:10.031Z,36.50
2018-06-03T11:54:41.422Z,36.50
2018-06-03T11:57:19.308Z,36.10
2018-06-03T11:59:57.143Z,35.80
2018-06-03T12:05:02.883Z,34.90
2018-06-03T12:07:36.317Z,34.70
2018-06-03T12:10:10.065Z,33.90
2018-06-03T12:12:42.657Z,33.80
2018-06-03T12:15:15.018Z,31.50
2018-06-03T12:17:48.301Z,31.90
2018-06-03T12:20:23.321Z,32.30
2018-06-03T12:22:57.515Z,30.80
2018-06-03T12:25:30.102Z,30.70
2018-06-03T12:30:36.535Z,32.20
2018-06-03T12:33:12.488Z,33.40
2018-06-03T12:35:44.632Z,31.50
2018-06-03T12:38:17.692Z,30.00
2018-06-03T12:40:56.788Z,30.00
2018-06-03T12:43:31.037Z,30.40
2018-06-03T12:46:04.008Z,29.50
2018-06-03T12:48:37.928Z,30.00
2018-06-03T12:51:10.239Z,29.60
2018-06-03T12:56:21.328Z,30.50
2018-06-03T12:58:54.459Z,31.50
2018-06-03T13:01:27.442Z,31.80
2018-06-03T13:04:02.700Z,32.30
2018-06-03T13:06:37.075Z,34.20
2018-06-03T13:09:10.736Z,35.00
2018-06-03T13:14:14.245Z,37.30
2018-06-03T13:16:46.615Z,38.20
2018-06-03T13:19:15.893Z,39.20
2018-06-03T13:21:45.495Z,40.80
2018-06-03T13:24:14.649Z,42.60
2018-06-03T13:26:43.936Z,42.10
2018-06-03T13:29:13.287Z,43.00
2018-06-03T13:31:42.776Z,46.10
2018-06-03T13:34:12.350Z,45.30
2018-06-03T13:39:12.987Z,42.50
2018-06-03T13:41:42.641Z,41.90
2018-06-03T13:44:12.801Z,38.80
2018-06-03T13:46:42.976Z,37.00
2018-06-03T13:49:13.042Z,36.60
2018-06-03T13:51:44.456Z,37.40
2018-06-03T13:54:16.312Z,37.90
2018-06-03T13:56:46.596Z,36.10
2018-06-03T13:59:16.961Z,35.20
2018-06-03T14:01:46.951Z,35.50
2018-06-03T14:04:17.372Z,36.60
2018-06-03T14:06:50.641Z,36.50
2018-06-03T14:09:22.497Z,35.70
2018-06-03T14:14:31.611Z,32.60
2018-06-03T14:17:04.226Z,31.50
2018-06-03T14:19:38.368Z,31.10
2018-06-03T14:22:16.415Z,30.80
2018-06-03T14:25:02.089Z,30.60
2018-06-03T14:27:36.455Z,30.50
2018-06-03T14:30:14.493Z,30.50
2018-06-03T14:32:46.382Z,32.70
2018-06-03T14:35:17.164Z,35.20
2018-06-03T14:37:47.749Z,37.40
2018-06-03T14:40:17.741Z,38.90
2018-06-03T14:42:46.869Z,41.20
2018-06-03T14:45:16.662Z,43.30
2018-06-03T14:47:48.499Z,42.00
2018-06-03T14:50:20.180Z,39.90
2018-06-03T14:52:51.379Z,37.50
2018-06-03T14:55:23.997Z,35.70
2018-06-03T14:57:59.525Z,35.70
2018-06-03T15:00:31.436Z,35.60
2018-06-03T15:03:03.584Z,34.40
2018-06-03T15:05:35.320Z,33.90
2018-06-03T15:08:08.398Z,34.20
2018-06-03T15:10:42.869Z,33.50
2018-06-03T15:13:16.670Z,33.60
2018-06-03T15:15:52.078Z,33.20
2018-06-03T15:18:25.490Z,35.60
2018-06-03T15:20:57.561Z,36.40
2018-06-03T15:23:29.557Z,36.60
2018-06-03T15:26:01.761Z,36.30
2018-06-03T15:28:38.297Z,34.10
2018-06-03T15:31:10.053Z,32.80
2018-06-03T15:33:40.922Z,32.10
2018-06-03T15:36:13.181Z,31.50
2018-06-03T15:38:44.888Z,32.50
2018-06-03T15:41:16.938Z,34.80
2018-06-03T15:43:51.395Z,36.40
2018-06-03T15:46:22.142Z,35.40
2018-06-03T15:48:55.057Z,34.40
2018-06-03T15:51:25.929Z,35.20
2018-06-03T15:53:54.961Z,35.70
2018-06-03T15:56:24.987Z,37.90
2018-06-03T15:58:54.159Z,38.50
2018-06-03T16:01:23.920Z,37.60
2018-06-03T16:03:52.928Z,36.30
2018-06-03T16:06:21.936Z,36.70
2018-06-03T16:08:50.875Z,36.30
2018-06-03T16:11:19.879Z,36.50
2018-06-03T16:13:49.124Z,38.00
2018-06-03T16:16:18.115Z,37.70
2018-06-03T16:18:47.724Z,38.20
2018-06-03T16:21:16.705Z,38.60
2018-06-03T16:23:45.691Z,39.90
2018-06-03T16:26:14.663Z,40.30
2018-06-03T16:28:43.701Z,38.70
2018-06-03T16:31:12.795Z,38.70
2018-06-03T16:33:41.719Z,37.50
2018-06-03T16:36:10.693Z,36.90
2018-06-03T16:38:39.826Z,37.70
2018-06-03T16:41:08.762Z,38.20
2018-06-03T16:43:37.686Z,39.70
2018-06-03T16:46:06.684Z,41.00
2018-06-03T16:48:35.946Z,42.40
2018-06-03T16:51:05.160Z,43.00
2018-06-03T16:53:34.151Z,43.80
2018-06-03T16:56:03.200Z,44.30
2018-06-03T16:58:32.137Z,46.00
2018-06-03T17:01:01.302Z,46.30
2018-06-03T17:03:30.398Z,46.20
2018-06-03T17:05:59.479Z,45.20
2018-06-03T17:08:28.489Z,46.40
2018-06-03T17:10:57.429Z,46.90
2018-06-03T17:13:27.244Z,46.70
2018-06-03T17:15:56.261Z,48.00
2018-06-03T17:18:25.321Z,48.20
2018-06-03T17:20:54.319Z,48.30
2018-06-03T17:23:23.242Z,49.00
2018-06-03T17:25:52.503Z,50.00
2018-06-03T17:28:21.430Z,50.90
2018-06-03T17:30:50.351Z,51.00
2018-06-03T17:35:48.413Z,50.40
2018-06-03T17:38:17.607Z,50.40
2018-06-03T17:40:47.149Z,50.70
2018-06-03T17:43:17.767Z,50.10
2018-06-03T17:45:47.375Z,51.70
2018-06-03T17:48:17.514Z,52.50
2018-06-03T17:55:44.577Z,49.60
2018-06-03T18:00:42.290Z,51.70
2018-06-03T18:03:11.330Z,51.80
2018-06-03T18:05:40.337Z,52.70
2018-06-03T18:08:09.516Z,52.20
2018-06-03T18:10:38.564Z,52.10
2018-06-03T18:13:07.469Z,52.20
2018-06-03T18:15:36.609Z,52.40
2018-06-03T18:18:05.650Z,52.80
2018-06-03T18:20:34.797Z,53.10
2018-06-03T18:23:03.759Z,52.90
2018-06-03T18:25:32.676Z,53.40
2018-06-03T18:28:01.753Z,54.50
2018-06-03T18:30:30.674Z,54.50
2018-06-03T18:32:59.688Z,54.60
2018-06-03T18:35:28.668Z,54.80
2018-06-03T18:40:26.473Z,55.60
2018-06-03T18:42:55.671Z,56.30
2018-06-03T18:45:24.577Z,56.10
2018-06-03T18:47:53.476Z,56.40
2018-06-03T18:50:22.703Z,57.50
2018-06-03T18:52:51.594Z,57.30
2018-06-03T18:55:20.459Z,57.80
2018-06-03T18:57:49.385Z,57.60
2018-06-03T19:00:18.335Z,58.60
2018-06-03T19:02:47.276Z,58.50
2018-06-03T19:05:16.183Z,58.50
2018-06-03T19:07:45.096Z,59.00
2018-06-03T19:10:14.031Z,59.20
2018-06-03T19:12:43.439Z,59.20
2018-06-03T19:17:41.734Z,59.40
2018-06-03T19:22:39.960Z,60.30
2018-06-03T19:25:08.913Z,60.10
2018-06-03T19:27:37.881Z,60.70
2018-06-03T19:30:07.159Z,61.00
2018-06-03T19:32:36.293Z,61.30
2018-06-03T19:35:06.295Z,61.40
2018-06-03T19:37:35.208Z,62.70
2018-06-03T19:40:04.236Z,61.70
2018-06-03T19:42:33.167Z,62.00
2018-06-03T19:45:02.062Z,61.80
2018-06-03T19:47:31.195Z,62.90
2018-06-03T19:50:00.124Z,62.10
2018-06-03T19:52:29.073Z,62.90
2018-06-03T19:54:57.922Z,63.10
2018-06-03T19:57:26.968Z,63.10
2018-06-03T20:02:24.490Z,64.70
2018-06-03T20:04:53.704Z,64.70
2018-06-03T20:07:22.799Z,64.90
2018-06-03T20:09:51.759Z,65.40
2018-06-03T20:12:20.713Z,66.30
2018-06-03T20:14:49.630Z,66.80
2018-06-03T20:17:18.591Z,67.10
2018-06-03T20:19:47.642Z,67.40
2018-06-03T20:22:16.659Z,67.70
2018-06-03T20:24:45.597Z,68.30
2018-06-03T20:27:15.426Z,69.60
2018-06-03T20:29:44.365Z,70.10
2018-06-03T20:32:13.424Z,71.10
2018-06-03T20:34:42.393Z,71.90
2018-06-03T20:37:11.239Z,72.10
2018-06-03T20:42:08.597Z,72.30
2018-06-03T20:44:37.568Z,72.70
2018-06-03T20:47:07.353Z,72.70
2018-06-03T20:49:36.183Z,73.00
2018-06-03T20:52:05.195Z,72.90
2018-06-03T20:54:34.166Z,73.70
2018-06-03T20:57:03.071Z,73.10
2018-06-03T20:59:32.095Z,73.40
2018-06-03T21:02:00.941Z,73.60
2018-06-03T21:04:29.887Z,73.60
2018-06-03T21:06:58.929Z,74.10
2018-06-03T21:12:03.453Z,75.30
2018-06-03T21:14:39.732Z,75.10
2018-06-03T21:17:08.934Z,75.10
2018-06-03T21:19:38.006Z,75.50
2018-06-03T21:22:06.876Z,75.40
2018-06-03T21:24:35.910Z,76.30
2018-06-03T21:27:04.785Z,76.20
2018-06-03T21:29:33.941Z,76.10
2018-06-03T21:32:02.876Z,76.10
2018-06-03T21:34:31.831Z,76.50
2018-06-03T21:37:00.746Z,76.80
2018-06-03T21:39:29.704Z,77.60
2018-06-03T21:41:59.005Z,78.00
2018-06-03T21:44:27.936Z,78.70
2018-06-03T21:46:56.862Z,79.00
2018-06-03T21:49:25.780Z,79.60
2018-06-03T21:51:54.652Z,79.20
2018-06-03T21:54:23.655Z,79.00
2018-06-03T21:56:52.716Z,79.30
2018-06-03T21:59:21.831Z,80.10
2018-06-03T22:01:50.726Z,80.10
2018-06-03T22:04:19.694Z,80.60
2018-06-03T22:06:48.592Z,80.10
2018-06-03T22:09:17.556Z,80.30
2018-06-03T22:11:46.425Z,81.00
2018-06-03T22:14:15.304Z,81.10
2018-06-03T22:16:44.268Z,81.30
2018-06-03T22:19:13.135Z,81.80
2018-06-03T22:21:42.331Z,81.90
2018-06-03T22:24:11.527Z,82.50
2018-06-03T22:29:08.993Z,83.00
2018-06-03T22:31:37.969Z,83.30
2018-06-03T22:34:06.817Z,83.40
2018-06-03T22:36:35.757Z,83.60
2018-06-03T22:39:06.657Z,83.60
2018-06-03T22:41:35.594Z,83.70
2018-06-03T22:44:04.623Z,83.90
2018-06-03T22:46:33.624Z,84.70
2018-06-03T22:49:02.591Z,84.90
2018-06-03T22:51:31.556Z,84.50
2018-06-03T22:56:39.137Z,84.90
2018-06-03T22:59:08.015Z,85.10
2018-06-03T23:01:36.938Z,85.40
2018-06-03T23:04:05.833Z,85.80
2018-06-03T23:06:34.849Z,85.80
2018-06-03T23:09:03.950Z,86.00
2018-06-03T23:11:32.955Z,86.10
2018-06-03T23:14:01.825Z,86.00
2018-06-03T23:16:30.834Z,86.00
2018-06-03T23:18:59.709Z,86.60
2018-06-03T23:21:28.631Z,86.80
2018-06-03T23:23:57.524Z,87.00
2018-06-03T23:26:27.494Z,87.40
2018-06-03T23:28:56.367Z,87.00
2018-06-03T23:31:26.314Z,87.60
2018-06-03T23:33:55.175Z,87.70
2018-06-03T23:36:24.088Z,87.80
2018-06-03T23:38:53.866Z,88.40
2018-06-03T23:41:22.755Z,88.10
2018-06-03T23:43:51.764Z,88.40
2018-06-03T23:48:49.337Z,88.60
2018-06-03T23:51:18.265Z,89.60
2018-06-03T23:53:47.084Z,89.20
2018-06-03T23:56:22.203Z,89.80
2018-06-03T23:58:51.139Z,89.80
